Theodosia, Missouri
Current Conditions -  °F | °C
As of 2:23 PM on Friday 19 Dec 2014 (Local Time) from KBPK Reporting Station
Haze Haze  
Wind Chill: 33°   Ceiling: 900
Heat Index: 37°   Visibility: 6mi
Dew Point: 34°   Wind: 5mph
Humidity: 89%   Direction: 90°E
Pressure: 30.19"   Gusts: NA
Location:  36.58°N, 92.68°W
Report Text: KBPK 192023Z AUTO 09004KT 6SM BR BKN009 OVC013 03/01 A3019 RMK AO2 T00280011
Loading
Personal Weather Stations






























Interactive Weather Map New forecast layout! Learn more

10-Day Weather Forecast

Advertisements
Track Severe Weather on mobile